createdAt,value
2023-04-27T00:00:11.290Z,4.95
2023-04-27T00:02:41.804Z,4.96
2023-04-27T00:05:12.001Z,4.96
2023-04-27T00:07:41.251Z,4.98
2023-04-27T00:10:11.125Z,4.98
2023-04-27T00:12:45.172Z,5.02
2023-04-27T00:15:16.266Z,5.05
2023-04-27T00:17:46.562Z,5.07
2023-04-27T00:20:15.334Z,5.06
2023-04-27T00:22:44.093Z,5.07
2023-04-27T00:25:12.996Z,5.09
2023-04-27T00:27:41.836Z,5.09
2023-04-27T00:30:12.097Z,5.08
2023-04-27T00:32:42.421Z,5.10
2023-04-27T00:35:13.199Z,5.11
2023-04-27T00:37:44.206Z,5.14
2023-04-27T00:40:13.490Z,5.16
2023-04-27T00:42:42.289Z,5.12
2023-04-27T00:45:13.450Z,5.13
2023-04-27T00:47:42.767Z,5.14
2023-04-27T00:50:13.704Z,5.17
2023-04-27T00:52:42.984Z,5.20
2023-04-27T00:55:11.768Z,5.22
2023-04-27T00:57:42.280Z,5.24
2023-04-27T01:00:13.823Z,5.26
2023-04-27T01:02:43.697Z,5.25
2023-04-27T01:05:14.232Z,5.27
2023-04-27T01:07:43.789Z,5.30
2023-04-27T01:10:12.742Z,5.31
2023-04-27T01:12:41.647Z,5.32
2023-04-27T01:15:11.781Z,5.32
2023-04-27T01:17:41.800Z,5.34
2023-04-27T01:20:11.313Z,5.36
2023-04-27T01:22:41.927Z,5.38
2023-04-27T01:25:12.676Z,5.40
2023-04-27T01:27:41.453Z,5.41
2023-04-27T01:30:10.592Z,5.43
2023-04-27T01:32:39.622Z,5.44
2023-04-27T01:35:09.013Z,5.45
2023-04-27T01:37:38.216Z,5.09
2023-04-27T01:40:08.868Z,5.31
2023-04-27T01:42:39.057Z,5.53
2023-04-27T01:45:12.157Z,5.54
2023-04-27T01:47:41.182Z,5.55
2023-04-27T01:50:11.556Z,5.57
2023-04-27T01:52:41.367Z,5.57
2023-04-27T01:55:11.296Z,5.58
2023-04-27T01:57:41.695Z,5.59
2023-04-27T02:00:11.775Z,5.58
2023-04-27T02:02:57.430Z,5.59
2023-04-27T02:05:26.429Z,5.23
2023-04-27T02:07:57.100Z,5.57
2023-04-27T02:10:26.137Z,5.58
2023-04-27T02:12:58.852Z,5.56
2023-04-27T02:15:27.969Z,5.57
2023-04-27T02:17:57.374Z,5.59
2023-04-27T02:20:26.773Z,5.61
2023-04-27T02:22:55.684Z,5.59
2023-04-27T02:25:28.265Z,5.59
2023-04-27T02:27:58.838Z,5.58
2023-04-27T02:30:28.370Z,5.57
2023-04-27T02:33:00.756Z,5.57
2023-04-27T02:35:29.639Z,5.56
2023-04-27T02:38:01.694Z,5.57
2023-04-27T02:40:30.455Z,5.56
2023-04-27T02:43:00.879Z,5.53
2023-04-27T02:45:30.984Z,5.53
2023-04-27T02:48:00.447Z,5.55
2023-04-27T02:50:29.324Z,5.54
2023-04-27T02:52:58.072Z,5.55
2023-04-27T02:55:31.102Z,5.55
2023-04-27T02:58:01.263Z,5.54
2023-04-27T03:00:30.323Z,5.56
2023-04-27T03:03:00.563Z,5.56
2023-04-27T03:05:31.709Z,5.57
2023-04-27T03:08:00.584Z,5.61
2023-04-27T03:10:36.992Z,5.62
2023-04-27T03:13:07.274Z,5.61
2023-04-27T03:15:36.870Z,5.63
2023-04-27T03:18:06.306Z,5.63
2023-04-27T03:20:36.103Z,5.62
2023-04-27T03:23:05.392Z,5.63
2023-04-27T03:25:35.413Z,5.63
2023-04-27T03:28:04.634Z,5.61
2023-04-27T03:30:35.979Z,5.63
2023-04-27T03:33:04.767Z,5.66
2023-04-27T03:35:34.818Z,5.64
2023-04-27T03:38:03.672Z,5.64
2023-04-27T03:40:34.001Z,5.67
2023-04-27T03:43:04.719Z,5.71
2023-04-27T03:45:34.854Z,5.71
2023-04-27T03:48:03.859Z,5.73
2023-04-27T03:50:33.008Z,5.76
2023-04-27T03:53:03.301Z,5.74
2023-04-27T03:55:32.205Z,5.78
2023-04-27T03:58:01.099Z,5.77
2023-04-27T04:00:59.999Z,5.80
2023-04-27T04:03:51.861Z,5.81
2023-04-27T04:06:20.818Z,5.83
2023-04-27T04:08:49.762Z,5.85
2023-04-27T04:11:19.068Z,5.89
2023-04-27T04:13:48.549Z,5.96
2023-04-27T04:16:19.543Z,6.02
2023-04-27T04:18:48.740Z,6.03
2023-04-27T04:21:17.978Z,6.07
2023-04-27T04:23:46.764Z,6.06
2023-04-27T04:26:15.721Z,6.03
2023-04-27T04:28:45.834Z,6.06
2023-04-27T04:31:17.517Z,6.08
2023-04-27T04:33:48.123Z,6.11
2023-04-27T04:36:18.545Z,6.09
2023-04-27T04:38:47.373Z,6.10
2023-04-27T04:41:19.767Z,6.15
2023-04-27T04:43:49.495Z,6.15
2023-04-27T04:46:20.107Z,6.20
2023-04-27T04:48:52.182Z,6.27
2023-04-27T04:51:22.793Z,6.29
2023-04-27T04:53:52.365Z,6.33
2023-04-27T04:56:21.285Z,6.38
2023-04-27T04:58:50.227Z,6.45
2023-04-27T05:01:19.477Z,6.53
2023-04-27T05:03:49.777Z,6.56
2023-04-27T05:06:18.727Z,6.63
2023-04-27T05:08:47.442Z,6.74
2023-04-27T05:11:16.135Z,6.82
2023-04-27T05:13:45.333Z,6.95
2023-04-27T05:16:14.265Z,7.10
2023-04-27T05:18:43.660Z,7.28
2023-04-27T05:21:20.622Z,7.47
2023-04-27T05:23:49.530Z,7.71
2023-04-27T05:26:19.621Z,7.89
2023-04-27T05:28:50.414Z,8.02
2023-04-27T05:31:19.462Z,8.11
2023-04-27T05:33:48.475Z,8.18
2023-04-27T05:36:18.552Z,8.32
2023-04-27T05:38:47.257Z,8.42
2023-04-27T05:41:16.081Z,8.53
2023-04-27T05:43:45.183Z,8.70
2023-04-27T05:46:15.844Z,8.95
2023-04-27T05:48:44.665Z,8.98
2023-04-27T05:51:13.567Z,9.13
2023-04-27T05:53:43.846Z,9.39
2023-04-27T05:56:12.830Z,9.59
2023-04-27T05:58:42.184Z,9.64
2023-04-27T06:01:10.997Z,9.63
2023-04-27T06:03:39.974Z,9.66
2023-04-27T06:06:09.021Z,9.78
2023-04-27T06:08:39.536Z,9.82
2023-04-27T06:11:09.750Z,9.92
2023-04-27T06:13:38.596Z,9.60
2023-04-27T06:16:08.155Z,10.11
2023-04-27T06:18:37.191Z,10.29
2023-04-27T06:21:07.054Z,10.40
2023-04-27T06:23:35.972Z,10.60
2023-04-27T06:26:05.312Z,10.78
2023-04-27T06:28:35.655Z,10.85
2023-04-27T06:31:04.885Z,10.74
2023-04-27T06:33:33.819Z,10.68
2023-04-27T06:36:03.249Z,10.61
2023-04-27T06:38:32.122Z,10.55
2023-04-27T06:41:00.996Z,10.51
2023-04-27T06:43:29.802Z,10.58
2023-04-27T06:45:59.967Z,10.74
2023-04-27T06:48:28.814Z,10.82
2023-04-27T06:50:57.624Z,11.01
2023-04-27T06:53:26.335Z,11.15
2023-04-27T06:55:56.549Z,11.28
2023-04-27T06:58:25.296Z,11.41
2023-04-27T07:00:54.062Z,11.16
2023-04-27T07:03:24.411Z,11.00
2023-04-27T07:05:53.294Z,11.03
2023-04-27T07:08:22.088Z,10.94
2023-04-27T07:10:51.087Z,10.64
2023-04-27T07:13:19.811Z,10.54
2023-04-27T07:15:48.612Z,10.54
2023-04-27T07:18:17.540Z,10.32
2023-04-27T07:20:47.655Z,11.08
2023-04-27T07:23:16.543Z,11.22
2023-04-27T07:25:45.525Z,11.15
2023-04-27T07:28:15.147Z,11.23
2023-04-27T07:30:43.940Z,11.47
2023-04-27T07:33:13.294Z,11.62
2023-04-27T07:35:42.095Z,11.88
2023-04-27T07:38:12.479Z,12.06
2023-04-27T07:40:42.672Z,12.22
2023-04-27T07:43:12.576Z,12.29
2023-04-27T07:45:42.492Z,12.43
2023-04-27T07:48:11.477Z,12.78
2023-04-27T07:50:40.383Z,13.00
2023-04-27T07:53:09.092Z,13.07
2023-04-27T07:55:39.221Z,13.26
2023-04-27T07:58:07.944Z,13.31
2023-04-27T08:00:36.649Z,13.28
2023-04-27T08:03:05.788Z,13.31
2023-04-27T08:05:35.259Z,13.43
2023-04-27T08:08:04.614Z,13.28
2023-04-27T08:10:33.518Z,13.09
2023-04-27T08:13:03.900Z,12.69
2023-04-27T08:15:32.745Z,12.87
2023-04-27T08:18:01.509Z,12.81
2023-04-27T08:20:30.541Z,12.72
2023-04-27T08:22:59.314Z,12.50
2023-04-27T08:25:28.014Z,12.56
2023-04-27T08:27:56.728Z,12.69
2023-04-27T08:30:26.850Z,12.94
2023-04-27T08:32:55.756Z,12.96
2023-04-27T08:35:24.495Z,12.65
2023-04-27T08:37:54.292Z,12.41
2023-04-27T08:40:24.819Z,12.59
2023-04-27T08:42:58.639Z,12.89
2023-04-27T08:45:29.826Z,12.87
2023-04-27T08:47:58.638Z,13.03
2023-04-27T08:50:27.490Z,13.31
2023-04-27T08:52:56.304Z,13.63
2023-04-27T08:55:25.129Z,14.10
2023-04-27T08:57:58.175Z,14.47
2023-04-27T09:00:38.828Z,14.84
2023-04-27T09:03:08.042Z,14.72
2023-04-27T09:05:37.084Z,14.59
2023-04-27T09:08:08.404Z,14.49
2023-04-27T09:10:47.479Z,14.19
2023-04-27T09:13:16.488Z,14.17
2023-04-27T09:15:48.838Z,14.41
2023-04-27T09:18:19.279Z,14.67
2023-04-27T09:20:50.422Z,14.38
2023-04-27T09:23:37.856Z,14.05
2023-04-27T09:26:08.856Z,13.92
2023-04-27T09:28:41.295Z,14.20
2023-04-27T09:31:11.896Z,14.30
2023-04-27T09:33:40.427Z,14.15
2023-04-27T09:36:09.692Z,14.14
2023-04-27T09:38:38.565Z,13.89
2023-04-27T09:41:09.032Z,13.81
2023-04-27T09:43:38.138Z,13.96
2023-04-27T09:46:07.244Z,14.08
2023-04-27T09:48:39.823Z,14.30
2023-04-27T09:51:08.746Z,14.59
2023-04-27T09:53:42.564Z,14.78
2023-04-27T09:56:28.419Z,14.66
2023-04-27T09:59:16.886Z,14.65
2023-04-27T10:01:48.813Z,14.73
2023-04-27T10:04:34.495Z,14.72
2023-04-27T10:07:04.896Z,14.88
2023-04-27T10:09:38.463Z,14.35
2023-04-27T10:12:18.980Z,15.10
2023-04-27T10:14:53.230Z,15.45
2023-04-27T10:17:30.306Z,15.51
2023-04-27T10:20:05.130Z,15.53
2023-04-27T10:22:41.971Z,15.66
2023-04-27T10:25:22.150Z,16.04
2023-04-27T10:27:53.063Z,15.94
2023-04-27T10:30:24.376Z,15.89
2023-04-27T10:32:54.729Z,15.43
2023-04-27T10:35:33.730Z,15.00
2023-04-27T10:38:08.554Z,14.85
2023-04-27T10:40:38.167Z,14.90
2023-04-27T10:43:11.361Z,14.90
2023-04-27T10:45:40.472Z,15.24
2023-04-27T10:48:09.536Z,15.35
2023-04-27T10:50:40.501Z,15.51
2023-04-27T10:53:09.802Z,15.40
2023-04-27T10:55:39.171Z,15.12
2023-04-27T10:58:08.016Z,15.01
2023-04-27T11:00:41.746Z,15.09
2023-04-27T11:03:18.678Z,15.35
2023-04-27T11:06:03.209Z,15.73
2023-04-27T11:08:34.126Z,15.66
2023-04-27T11:11:11.335Z,15.08
2023-04-27T11:13:40.727Z,14.46
2023-04-27T11:16:12.740Z,14.34
2023-04-27T11:18:41.869Z,14.84
2023-04-27T11:21:16.338Z,15.33
2023-04-27T11:23:45.463Z,15.55
2023-04-27T11:26:16.142Z,16.04
2023-04-27T11:28:45.759Z,16.44
2023-04-27T11:31:19.522Z,16.90
2023-04-27T11:33:52.064Z,16.74
2023-04-27T11:36:23.630Z,15.96
2023-04-27T11:38:52.423Z,15.30
2023-04-27T11:41:21.174Z,14.90
2023-04-27T11:43:51.286Z,14.86
2023-04-27T11:46:22.364Z,15.17
2023-04-27T11:48:52.400Z,15.21
2023-04-27T11:51:26.241Z,15.23
2023-04-27T11:53:54.992Z,15.17
2023-04-27T11:56:23.753Z,14.90
2023-04-27T11:58:52.168Z,14.34
2023-04-27T12:01:30.877Z,13.90
2023-04-27T12:04:05.927Z,13.58
2023-04-27T12:06:36.546Z,13.54
2023-04-27T12:09:05.644Z,13.63
2023-04-27T12:11:34.702Z,13.94
2023-04-27T12:14:04.349Z,14.34
2023-04-27T12:16:33.616Z,14.78
2023-04-27T12:19:02.602Z,14.66
2023-04-27T12:21:32.252Z,14.28
2023-04-27T12:24:02.388Z,14.10
2023-04-27T12:26:31.156Z,14.07
2023-04-27T12:28:59.944Z,14.32
2023-04-27T12:31:28.729Z,14.94
2023-04-27T12:33:57.706Z,15.18
2023-04-27T12:36:27.329Z,15.17
2023-04-27T12:38:58.977Z,15.04
2023-04-27T12:41:29.277Z,15.25
2023-04-27T12:43:57.858Z,15.17
2023-04-27T12:46:26.860Z,15.44
2023-04-27T12:48:57.080Z,15.57
2023-04-27T12:51:25.950Z,14.93
2023-04-27T12:53:54.709Z,14.90
2023-04-27T12:56:24.108Z,14.84
2023-04-27T12:58:54.186Z,15.22
2023-04-27T13:01:24.943Z,15.21
2023-04-27T13:03:54.786Z,14.59
2023-04-27T13:06:23.909Z,14.25
2023-04-27T13:08:52.855Z,14.12
2023-04-27T13:11:21.809Z,14.28
2023-04-27T13:13:50.834Z,14.23
2023-04-27T13:16:22.661Z,14.10
2023-04-27T13:18:52.458Z,14.25
2023-04-27T13:21:21.103Z,14.06
2023-04-27T13:23:51.236Z,13.39
2023-04-27T13:26:20.003Z,13.63
2023-04-27T13:28:49.032Z,13.43
2023-04-27T13:31:17.869Z,13.40
2023-04-27T13:33:48.084Z,14.08
2023-04-27T13:36:16.981Z,14.30
2023-04-27T13:38:47.686Z,14.49
2023-04-27T13:41:16.602Z,14.50
2023-04-27T13:43:45.578Z,14.81
2023-04-27T13:46:15.474Z,15.15
2023-04-27T13:48:44.288Z,15.32
2023-04-27T13:51:14.508Z,15.15
2023-04-27T13:53:43.292Z,15.28
2023-04-27T13:56:11.769Z,15.27
2023-04-27T13:58:41.646Z,14.97
2023-04-27T14:01:10.594Z,14.89
2023-04-27T14:06:08.367Z,14.86
2023-04-27T14:08:38.732Z,15.17
2023-04-27T14:11:07.535Z,14.93
2023-04-27T14:13:36.379Z,14.86
2023-04-27T14:16:05.338Z,14.39
2023-04-27T14:18:34.290Z,13.98
2023-04-27T14:21:03.445Z,13.64
2023-04-27T14:23:32.355Z,13.66
2023-04-27T14:26:02.593Z,14.00
2023-04-27T14:28:31.468Z,14.19
2023-04-27T14:31:00.195Z,14.11
2023-04-27T14:33:28.998Z,14.04
2023-04-27T14:35:57.809Z,13.76
2023-04-27T14:38:26.547Z,13.57
2023-04-27T14:40:55.289Z,13.40
2023-04-27T14:43:25.414Z,13.34
2023-04-27T14:46:19.834Z,13.29
2023-04-27T14:48:50.705Z,13.35
2023-04-27T14:51:19.805Z,13.32
2023-04-27T14:53:48.757Z,13.34
2023-04-27T14:56:18.053Z,13.21
2023-04-27T14:58:48.563Z,13.40
2023-04-27T15:01:17.403Z,13.62
2023-04-27T15:03:46.345Z,13.87
2023-04-27T15:06:15.388Z,14.05
2023-04-27T15:08:44.067Z,14.03
2023-04-27T15:11:12.805Z,13.90
2023-04-27T15:13:41.508Z,13.82
2023-04-27T15:16:11.663Z,13.84
2023-04-27T15:18:40.608Z,14.01
2023-04-27T15:21:09.320Z,13.81
2023-04-27T15:23:41.037Z,13.62
2023-04-27T15:26:09.807Z,13.41
2023-04-27T15:28:38.589Z,13.39
2023-04-27T15:31:07.481Z,13.54
2023-04-27T15:33:37.676Z,13.93
2023-04-27T15:36:06.919Z,14.14
2023-04-27T15:38:36.351Z,14.13
2023-04-27T15:41:05.149Z,14.22
2023-04-27T15:43:33.885Z,14.23
2023-04-27T15:46:05.846Z,13.96
2023-04-27T15:48:36.361Z,14.53
2023-04-27T15:51:09.526Z,14.16
2023-04-27T15:53:39.083Z,14.02
2023-04-27T15:56:08.103Z,13.93
2023-04-27T15:58:36.839Z,13.88
2023-04-27T16:01:07.021Z,13.94
2023-04-27T16:03:37.874Z,14.07
2023-04-27T16:06:07.597Z,13.99
2023-04-27T16:08:36.309Z,13.93
2023-04-27T16:11:05.147Z,13.77
2023-04-27T16:13:33.906Z,13.59
2023-04-27T16:16:04.442Z,13.50
2023-04-27T16:18:34.802Z,13.37
2023-04-27T16:21:05.095Z,13.34
2023-04-27T16:23:33.836Z,13.33
2023-04-27T16:26:02.603Z,13.23
2023-04-27T16:28:32.756Z,13.12
2023-04-27T16:31:01.754Z,12.95
2023-04-27T16:33:31.293Z,12.60
2023-04-27T16:36:00.106Z,12.37
2023-04-27T16:38:30.206Z,12.29
2023-04-27T16:40:58.937Z,12.28
2023-04-27T16:43:28.068Z,12.32
2023-04-27T16:45:56.907Z,12.30
2023-04-27T16:48:25.865Z,12.48
2023-04-27T16:50:55.648Z,12.39
2023-04-27T16:53:24.579Z,12.15
2023-04-27T16:55:54.791Z,12.15
2023-04-27T16:58:24.122Z,12.23
2023-04-27T17:00:52.868Z,12.42
2023-04-27T17:03:21.739Z,12.51
2023-04-27T17:05:51.266Z,12.43
2023-04-27T17:08:20.136Z,12.20
2023-04-27T17:10:49.185Z,12.33
2023-04-27T17:13:19.324Z,12.36
2023-04-27T17:15:48.221Z,12.34
2023-04-27T17:18:17.020Z,12.37
2023-04-27T17:20:45.728Z,12.30
2023-04-27T17:23:14.495Z,11.99
2023-04-27T17:25:43.203Z,11.96
2023-04-27T17:28:12.193Z,11.88
2023-04-27T17:30:42.644Z,11.64
2023-04-27T17:33:11.413Z,11.43
2023-04-27T17:35:40.740Z,11.23
2023-04-27T17:38:09.517Z,11.09
2023-04-27T17:40:38.282Z,10.94
2023-04-27T17:43:07.545Z,10.76
2023-04-27T17:45:36.730Z,10.63
2023-04-27T17:48:07.810Z,10.52
2023-04-27T17:50:37.508Z,10.39
2023-04-27T17:53:06.339Z,10.24
2023-04-27T17:55:35.334Z,10.08
2023-04-27T17:58:06.332Z,9.87
2023-04-27T18:00:35.749Z,9.65
2023-04-27T18:03:06.305Z,9.58
2023-04-27T18:05:35.308Z,9.49
2023-04-27T18:08:04.200Z,9.45
2023-04-27T18:10:33.008Z,9.35
2023-04-27T18:13:01.761Z,9.23
2023-04-27T18:15:30.566Z,9.14
2023-04-27T18:17:59.383Z,9.03
2023-04-27T18:20:29.866Z,8.96
2023-04-27T18:22:58.870Z,8.88
2023-04-27T18:25:27.705Z,8.77
2023-04-27T18:27:56.612Z,8.67
2023-04-27T18:30:25.926Z,8.57
2023-04-27T18:32:55.091Z,8.53
2023-04-27T18:35:24.140Z,8.44
2023-04-27T18:37:54.207Z,8.33
2023-04-27T18:40:24.980Z,8.24
2023-04-27T18:42:54.568Z,8.17
2023-04-27T18:45:23.560Z,8.06
2023-04-27T18:47:52.406Z,7.91
2023-04-27T18:50:21.433Z,7.74
2023-04-27T18:52:50.279Z,7.52
2023-04-27T18:55:20.695Z,7.40
2023-04-27T18:57:49.701Z,7.36
2023-04-27T19:00:18.616Z,7.34
2023-04-27T19:02:48.288Z,7.29
2023-04-27T19:05:17.394Z,7.26
2023-04-27T19:07:46.153Z,7.16
2023-04-27T19:10:14.956Z,6.99
2023-04-27T19:12:45.097Z,6.82
2023-04-27T19:15:14.406Z,6.69
2023-04-27T19:17:43.574Z,6.16
2023-04-27T19:20:12.917Z,6.43
2023-04-27T19:22:41.663Z,6.36
2023-04-27T19:25:10.889Z,6.33
2023-04-27T19:27:39.768Z,6.33
2023-04-27T19:30:11.440Z,6.34
2023-04-27T19:32:40.341Z,6.35
2023-04-27T19:35:12.469Z,6.34
2023-04-27T19:37:41.391Z,6.29
2023-04-27T19:40:11.370Z,6.31
2023-04-27T19:42:40.129Z,6.19
2023-04-27T19:45:10.980Z,6.08
2023-04-27T19:47:39.844Z,5.99
2023-04-27T19:50:09.347Z,5.93
2023-04-27T19:52:38.214Z,5.91
2023-04-27T19:55:07.813Z,5.87
2023-04-27T19:57:39.637Z,5.78
2023-04-27T20:00:12.320Z,5.74
2023-04-27T20:02:43.940Z,5.70
2023-04-27T20:05:13.565Z,5.70
2023-04-27T20:07:42.746Z,5.68
2023-04-27T20:10:11.749Z,5.64
2023-04-27T20:12:55.256Z,5.59
2023-04-27T20:15:26.882Z,5.56
2023-04-27T20:17:55.817Z,5.54
2023-04-27T20:20:24.631Z,5.51
2023-04-27T20:22:53.339Z,5.49
2023-04-27T20:25:22.195Z,5.46
2023-04-27T20:27:51.313Z,5.41
2023-04-27T20:30:20.268Z,5.39
2023-04-27T20:32:50.489Z,5.35
2023-04-27T20:35:19.315Z,5.38
2023-04-27T20:37:48.034Z,5.43
2023-04-27T20:40:18.244Z,5.46
2023-04-27T20:42:49.402Z,5.44
2023-04-27T20:45:18.708Z,5.37
2023-04-27T20:47:47.518Z,5.30
2023-04-27T20:50:17.800Z,5.25
2023-04-27T20:52:50.078Z,5.22
2023-04-27T20:55:18.828Z,5.24
2023-04-27T20:57:47.563Z,5.30
2023-04-27T21:00:18.577Z,5.36
2023-04-27T21:02:48.297Z,5.37
2023-04-27T21:05:18.801Z,5.35
2023-04-27T21:07:47.517Z,5.34
2023-04-27T21:10:16.276Z,5.32
2023-04-27T21:12:44.980Z,5.28
2023-04-27T21:15:13.775Z,5.26
2023-04-27T21:17:42.552Z,5.24
2023-04-27T21:20:12.310Z,5.21
2023-04-27T21:22:42.404Z,5.18
2023-04-27T21:25:11.531Z,5.11
2023-04-27T21:27:40.755Z,5.03
2023-04-27T21:30:11.132Z,4.95
2023-04-27T21:32:39.937Z,4.89
2023-04-27T21:35:09.790Z,4.85
2023-04-27T21:37:38.604Z,4.81
2023-04-27T21:40:09.972Z,4.85
2023-04-27T21:42:38.805Z,4.83
2023-04-27T21:45:08.618Z,4.83
2023-04-27T21:47:37.521Z,4.77
2023-04-27T21:50:07.727Z,4.74
2023-04-27T21:52:36.568Z,4.73
2023-04-27T21:55:05.762Z,4.71
2023-04-27T21:57:35.899Z,4.70
2023-04-27T22:00:13.786Z,4.68
2023-04-27T22:02:49.597Z,4.64
2023-04-27T22:05:20.930Z,4.67
2023-04-27T22:07:49.661Z,4.71
2023-04-27T22:10:18.445Z,4.74
2023-04-27T22:12:48.630Z,4.72
2023-04-27T22:15:19.747Z,4.71
2023-04-27T22:17:49.796Z,4.67
2023-04-27T22:20:18.870Z,4.63
2023-04-27T22:22:48.140Z,4.61
2023-04-27T22:25:16.853Z,4.57
2023-04-27T22:27:46.989Z,4.57
2023-04-27T22:30:16.526Z,4.51
2023-04-27T22:32:45.652Z,4.48
2023-04-27T22:35:25.790Z,4.48
2023-04-27T22:37:56.314Z,4.52
2023-04-27T22:40:25.543Z,4.53
2023-04-27T22:42:56.064Z,4.48
2023-04-27T22:45:24.817Z,4.45
2023-04-27T22:47:53.943Z,4.42
2023-04-27T22:50:23.243Z,4.40
2023-04-27T22:52:53.004Z,4.40
2023-04-27T22:55:22.272Z,4.39
2023-04-27T22:57:51.106Z,4.39
2023-04-27T23:00:21.667Z,4.40
2023-04-27T23:02:50.700Z,4.38
2023-04-27T23:05:19.540Z,4.38
2023-04-27T23:07:48.280Z,4.37
2023-04-27T23:10:18.826Z,4.37
2023-04-27T23:12:47.565Z,4.39
2023-04-27T23:15:16.467Z,4.40
2023-04-27T23:17:46.555Z,4.43
2023-04-27T23:20:27.460Z,4.44
2023-04-27T23:22:57.753Z,4.45
2023-04-27T23:25:26.589Z,4.48
2023-04-27T23:27:55.325Z,4.51
2023-04-27T23:30:24.180Z,4.53
2023-04-27T23:32:54.301Z,4.59
2023-04-27T23:35:23.308Z,4.65
2023-04-27T23:37:52.039Z,4.74
2023-04-27T23:40:20.757Z,4.81
2023-04-27T23:42:51.490Z,4.89
2023-04-27T23:45:20.917Z,4.96
2023-04-27T23:47:49.781Z,5.04
2023-04-27T23:50:19.987Z,5.13
2023-04-27T23:52:49.662Z,5.15
2023-04-27T23:55:18.719Z,5.16
2023-04-27T23:57:47.456Z,5.16
